sensor_id;sensor_type;location;lat;lon;timestamp;temperature;humidity
62589;DHT22;58504;48.770;9.148;2022-12-29T00:00:10;20.00;55.50
62589;DHT22;58504;48.770;9.148;2022-12-29T00:02:37;20.00;55.60
62589;DHT22;58504;48.770;9.148;2022-12-29T00:05:04;20.00;55.80
62589;DHT22;58504;48.770;9.148;2022-12-29T00:07:32;19.90;55.90
62589;DHT22;58504;48.770;9.148;2022-12-29T00:10:00;19.90;55.90
62589;DHT22;58504;48.770;9.148;2022-12-29T00:12:27;19.90;56.00
62589;DHT22;58504;48.770;9.148;2022-12-29T00:15:14;19.80;56.20
62589;DHT22;58504;48.770;9.148;2022-12-29T00:17:58;19.80;56.20
62589;DHT22;58504;48.770;9.148;2022-12-29T00:20:25;19.70;56.40
62589;DHT22;58504;48.770;9.148;2022-12-29T00:23:09;19.70;56.50
62589;DHT22;58504;48.770;9.148;2022-12-29T00:25:55;19.70;56.60
62589;DHT22;58504;48.770;9.148;2022-12-29T00:28:39;19.60;56.80
62589;DHT22;58504;48.770;9.148;2022-12-29T00:31:23;19.60;56.80
62589;DHT22;58504;48.770;9.148;2022-12-29T00:34:10;19.60;56.90
62589;DHT22;58504;48.770;9.148;2022-12-29T00:36:55;19.60;57.00
62589;DHT22;58504;48.770;9.148;2022-12-29T00:39:22;19.50;57.10
62589;DHT22;58504;48.770;9.148;2022-12-29T00:42:09;19.50;57.20
62589;DHT22;58504;48.770;9.148;2022-12-29T00:44:53;19.50;57.30
62589;DHT22;58504;48.770;9.148;2022-12-29T00:47:20;19.50;57.40
62589;DHT22;58504;48.770;9.148;2022-12-29T00:49:47;19.50;57.40
62589;DHT22;58504;48.770;9.148;2022-12-29T00:52:13;19.40;57.40
62589;DHT22;58504;48.770;9.148;2022-12-29T00:54:41;19.40;57.50
62589;DHT22;58504;48.770;9.148;2022-12-29T00:57:11;19.40;57.60
62589;DHT22;58504;48.770;9.148;2022-12-29T00:59:40;19.40;57.70
62589;DHT22;58504;48.770;9.148;2022-12-29T01:02:07;19.40;57.90
62589;DHT22;58504;48.770;9.148;2022-12-29T01:04:35;19.40;58.00
62589;DHT22;58504;48.770;9.148;2022-12-29T01:07:01;19.40;58.00
62589;DHT22;58504;48.770;9.148;2022-12-29T01:09:28;19.30;58.00
62589;DHT22;58504;48.770;9.148;2022-12-29T01:12:14;19.30;58.00
62589;DHT22;58504;48.770;9.148;2022-12-29T01:14:41;19.30;58.20
62589;DHT22;58504;48.770;9.148;2022-12-29T01:17:08;19.30;58.20
62589;DHT22;58504;48.770;9.148;2022-12-29T01:19:34;19.30;58.30
62589;DHT22;58504;48.770;9.148;2022-12-29T01:22:01;19.30;58.20
62589;DHT22;58504;48.770;9.148;2022-12-29T01:24:28;19.30;58.30
62589;DHT22;58504;48.770;9.148;2022-12-29T01:26:55;19.30;58.30
62589;DHT22;58504;48.770;9.148;2022-12-29T01:29:23;19.30;58.20
62589;DHT22;58504;48.770;9.148;2022-12-29T01:31:50;19.30;58.20
62589;DHT22;58504;48.770;9.148;2022-12-29T01:34:17;19.30;58.20
62589;DHT22;58504;48.770;9.148;2022-12-29T01:36:44;19.30;58.30
62589;DHT22;58504;48.770;9.148;2022-12-29T01:39:11;19.30;58.30
62589;DHT22;58504;48.770;9.148;2022-12-29T01:41:37;19.30;58.20
62589;DHT22;58504;48.770;9.148;2022-12-29T01:47:07;19.30;58.20
62589;DHT22;58504;48.770;9.148;2022-12-29T01:49:34;19.30;58.20
62589;DHT22;58504;48.770;9.148;2022-12-29T01:52:04;19.30;58.10
62589;DHT22;58504;48.770;9.148;2022-12-29T01:54:33;19.30;58.10
62589;DHT22;58504;48.770;9.148;2022-12-29T01:57:05;19.20;58.00
62589;DHT22;58504;48.770;9.148;2022-12-29T01:59:38;19.20;58.00
62589;DHT22;58504;48.770;9.148;2022-12-29T02:02:07;19.20;58.00
62589;DHT22;58504;48.770;9.148;2022-12-29T02:04:35;19.20;58.00
62589;DHT22;58504;48.770;9.148;2022-12-29T02:07:09;19.20;58.10
62589;DHT22;58504;48.770;9.148;2022-12-29T02:09:38;19.20;58.10
62589;DHT22;58504;48.770;9.148;2022-12-29T02:12:05;19.20;58.10
62589;DHT22;58504;48.770;9.148;2022-12-29T02:14:31;19.10;58.10
62589;DHT22;58504;48.770;9.148;2022-12-29T02:17:05;19.10;58.10
62589;DHT22;58504;48.770;9.148;2022-12-29T02:20:11;19.10;58.20
62589;DHT22;58504;48.770;9.148;2022-12-29T02:22:57;19.10;58.10
62589;DHT22;58504;48.770;9.148;2022-12-29T02:25:48;19.10;58.20
62589;DHT22;58504;48.770;9.148;2022-12-29T02:31:15;19.00;58.10
62589;DHT22;58504;48.770;9.148;2022-12-29T02:33:55;19.00;58.10
62589;DHT22;58504;48.770;9.148;2022-12-29T02:36:32;19.00;58.10
62589;DHT22;58504;48.770;9.148;2022-12-29T02:39:09;19.00;58.10
62589;DHT22;58504;48.770;9.148;2022-12-29T02:41:44;19.00;58.20
62589;DHT22;58504;48.770;9.148;2022-12-29T02:44:18;19.00;58.10
62589;DHT22;58504;48.770;9.148;2022-12-29T02:46:52;19.00;58.20
62589;DHT22;58504;48.770;9.148;2022-12-29T02:49:25;19.00;58.20
62589;DHT22;58504;48.770;9.148;2022-12-29T02:51:56;19.00;58.20
62589;DHT22;58504;48.770;9.148;2022-12-29T02:54:23;19.00;58.20
62589;DHT22;58504;48.770;9.148;2022-12-29T02:57:12;18.90;58.10
62589;DHT22;58504;48.770;9.148;2022-12-29T02:59:40;18.90;58.10
62589;DHT22;58504;48.770;9.148;2022-12-29T03:02:30;18.90;58.10
62589;DHT22;58504;48.770;9.148;2022-12-29T03:05:10;18.90;58.10
62589;DHT22;58504;48.770;9.148;2022-12-29T03:07:46;18.90;58.10
62589;DHT22;58504;48.770;9.148;2022-12-29T03:10:30;18.90;58.10
62589;DHT22;58504;48.770;9.148;2022-12-29T03:13:04;18.80;58.00
62589;DHT22;58504;48.770;9.148;2022-12-29T03:15:55;18.90;58.10
62589;DHT22;58504;48.770;9.148;2022-12-29T03:18:39;18.90;58.10
62589;DHT22;58504;48.770;9.148;2022-12-29T03:21:11;18.80;58.10
62589;DHT22;58504;48.770;9.148;2022-12-29T03:23:41;18.80;58.00
62589;DHT22;58504;48.770;9.148;2022-12-29T03:26:11;18.80;58.10
62589;DHT22;58504;48.770;9.148;2022-12-29T03:28:40;18.80;58.10
62589;DHT22;58504;48.770;9.148;2022-12-29T03:31:09;18.80;58.00
62589;DHT22;58504;48.770;9.148;2022-12-29T03:33:38;18.80;58.00
62589;DHT22;58504;48.770;9.148;2022-12-29T03:36:10;18.80;58.00
62589;DHT22;58504;48.770;9.148;2022-12-29T03:38:43;18.80;58.00
62589;DHT22;58504;48.770;9.148;2022-12-29T03:41:14;18.80;58.10
62589;DHT22;58504;48.770;9.148;2022-12-29T03:43:42;18.80;58.10
62589;DHT22;58504;48.770;9.148;2022-12-29T03:46:09;18.80;58.00
62589;DHT22;58504;48.770;9.148;2022-12-29T03:48:36;18.70;57.90
62589;DHT22;58504;48.770;9.148;2022-12-29T03:51:04;18.70;58.00
62589;DHT22;58504;48.770;9.148;2022-12-29T03:53:31;18.70;58.50
62589;DHT22;58504;48.770;9.148;2022-12-29T03:55:58;18.70;58.00
62589;DHT22;58504;48.770;9.148;2022-12-29T03:58:24;18.70;57.90
62589;DHT22;58504;48.770;9.148;2022-12-29T04:00:51;18.70;57.90
62589;DHT22;58504;48.770;9.148;2022-12-29T04:03:18;18.70;57.90
62589;DHT22;58504;48.770;9.148;2022-12-29T04:05:45;18.70;57.90
62589;DHT22;58504;48.770;9.148;2022-12-29T04:08:13;18.70;57.90
62589;DHT22;58504;48.770;9.148;2022-12-29T04:10:40;18.70;57.90
62589;DHT22;58504;48.770;9.148;2022-12-29T04:13:06;18.70;58.40
62589;DHT22;58504;48.770;9.148;2022-12-29T04:15:34;18.70;57.90
62589;DHT22;58504;48.770;9.148;2022-12-29T04:18:00;18.70;58.00
62589;DHT22;58504;48.770;9.148;2022-12-29T04:20:27;18.60;57.80
62589;DHT22;58504;48.770;9.148;2022-12-29T04:23:13;18.60;57.90
62589;DHT22;58504;48.770;9.148;2022-12-29T04:25:40;18.60;57.90
62589;DHT22;58504;48.770;9.148;2022-12-29T04:28:06;18.60;57.90
62589;DHT22;58504;48.770;9.148;2022-12-29T04:30:33;18.60;57.80
62589;DHT22;58504;48.770;9.148;2022-12-29T04:33:00;18.70;57.70
62589;DHT22;58504;48.770;9.148;2022-12-29T04:35:27;19.10;57.50
62589;DHT22;58504;48.770;9.148;2022-12-29T04:37:53;19.50;56.70
62589;DHT22;58504;48.770;9.148;2022-12-29T04:40:21;19.80;55.90
62589;DHT22;58504;48.770;9.148;2022-12-29T04:42:49;20.10;55.10
62589;DHT22;58504;48.770;9.148;2022-12-29T04:45:16;20.40;54.50
62589;DHT22;58504;48.770;9.148;2022-12-29T04:47:43;20.50;54.10
62589;DHT22;58504;48.770;9.148;2022-12-29T04:50:10;20.70;53.80
62589;DHT22;58504;48.770;9.148;2022-12-29T04:52:37;20.80;53.50
62589;DHT22;58504;48.770;9.148;2022-12-29T04:55:05;20.90;53.30
62589;DHT22;58504;48.770;9.148;2022-12-29T04:57:33;21.00;53.10
62589;DHT22;58504;48.770;9.148;2022-12-29T05:00:00;21.10;53.00
62589;DHT22;58504;48.770;9.148;2022-12-29T05:02:27;21.10;52.60
62589;DHT22;58504;48.770;9.148;2022-12-29T05:04:54;21.20;52.60
62589;DHT22;58504;48.770;9.148;2022-12-29T05:07:20;21.20;52.30
62589;DHT22;58504;48.770;9.148;2022-12-29T05:09:47;21.20;52.80
62589;DHT22;58504;48.770;9.148;2022-12-29T05:12:14;21.20;52.30
62589;DHT22;58504;48.770;9.148;2022-12-29T05:14:42;21.20;52.40
62589;DHT22;58504;48.770;9.148;2022-12-29T05:17:09;21.10;52.20
62589;DHT22;58504;48.770;9.148;2022-12-29T05:19:36;21.10;52.40
62589;DHT22;58504;48.770;9.148;2022-12-29T05:22:03;21.00;52.50
62589;DHT22;58504;48.770;9.148;2022-12-29T05:24:30;20.90;52.60
62589;DHT22;58504;48.770;9.148;2022-12-29T05:26:57;20.90;52.80
62589;DHT22;58504;48.770;9.148;2022-12-29T05:29:23;20.80;52.90
62589;DHT22;58504;48.770;9.148;2022-12-29T05:31:51;20.80;53.10
62589;DHT22;58504;48.770;9.148;2022-12-29T05:34:18;20.70;53.20
62589;DHT22;58504;48.770;9.148;2022-12-29T05:36:45;20.70;53.30
62589;DHT22;58504;48.770;9.148;2022-12-29T05:39:11;20.60;53.40
62589;DHT22;58504;48.770;9.148;2022-12-29T05:41:38;20.50;53.60
62589;DHT22;58504;48.770;9.148;2022-12-29T05:44:05;20.50;53.70
62589;DHT22;58504;48.770;9.148;2022-12-29T05:46:32;20.40;53.70
62589;DHT22;58504;48.770;9.148;2022-12-29T05:49:00;20.30;53.80
62589;DHT22;58504;48.770;9.148;2022-12-29T05:51:27;20.30;54.00
62589;DHT22;58504;48.770;9.148;2022-12-29T05:53:54;20.30;54.10
62589;DHT22;58504;48.770;9.148;2022-12-29T05:56:21;20.20;54.20
62589;DHT22;58504;48.770;9.148;2022-12-29T05:58:47;20.20;54.40
62589;DHT22;58504;48.770;9.148;2022-12-29T06:01:14;20.10;54.40
62589;DHT22;58504;48.770;9.148;2022-12-29T06:03:41;20.10;54.50
62589;DHT22;58504;48.770;9.148;2022-12-29T06:06:09;20.00;54.60
62589;DHT22;58504;48.770;9.148;2022-12-29T06:08:36;20.00;54.60
62589;DHT22;58504;48.770;9.148;2022-12-29T06:11:03;19.90;54.70
62589;DHT22;58504;48.770;9.148;2022-12-29T06:13:29;19.90;54.80
62589;DHT22;58504;48.770;9.148;2022-12-29T06:15:56;19.90;54.90
62589;DHT22;58504;48.770;9.148;2022-12-29T06:18:23;19.80;54.80
62589;DHT22;58504;48.770;9.148;2022-12-29T06:20:50;19.80;55.00
62589;DHT22;58504;48.770;9.148;2022-12-29T06:23:18;19.70;54.80
62589;DHT22;58504;48.770;9.148;2022-12-29T06:25:46;19.70;55.10
62589;DHT22;58504;48.770;9.148;2022-12-29T06:28:13;19.70;55.20
62589;DHT22;58504;48.770;9.148;2022-12-29T06:30:43;19.60;55.30
62589;DHT22;58504;48.770;9.148;2022-12-29T06:33:10;19.60;55.40
62589;DHT22;58504;48.770;9.148;2022-12-29T06:35:37;19.60;55.40
62589;DHT22;58504;48.770;9.148;2022-12-29T06:38:04;19.50;55.40
62589;DHT22;58504;48.770;9.148;2022-12-29T06:40:32;19.50;55.50
62589;DHT22;58504;48.770;9.148;2022-12-29T06:42:59;19.50;55.60
62589;DHT22;58504;48.770;9.148;2022-12-29T06:45:25;19.40;55.40
62589;DHT22;58504;48.770;9.148;2022-12-29T06:47:52;19.50;55.50
62589;DHT22;58504;48.770;9.148;2022-12-29T06:50:19;19.40;55.70
62589;DHT22;58504;48.770;9.148;2022-12-29T06:52:46;19.40;55.80
62589;DHT22;58504;48.770;9.148;2022-12-29T06:55:12;19.40;55.70
62589;DHT22;58504;48.770;9.148;2022-12-29T06:57:40;19.40;55.90
62589;DHT22;58504;48.770;9.148;2022-12-29T07:00:08;19.40;55.90
62589;DHT22;58504;48.770;9.148;2022-12-29T07:02:35;19.30;55.90
62589;DHT22;58504;48.770;9.148;2022-12-29T07:05:02;19.30;55.90
62589;DHT22;58504;48.770;9.148;2022-12-29T07:07:29;19.30;56.00
62589;DHT22;58504;48.770;9.148;2022-12-29T07:09:56;19.30;56.00
62589;DHT22;58504;48.770;9.148;2022-12-29T07:12:22;19.30;56.00
62589;DHT22;58504;48.770;9.148;2022-12-29T07:14:50;19.30;56.00
62589;DHT22;58504;48.770;9.148;2022-12-29T07:17:17;19.20;56.00
62589;DHT22;58504;48.770;9.148;2022-12-29T07:19:44;19.20;56.00
62589;DHT22;58504;48.770;9.148;2022-12-29T07:22:10;19.20;56.10
62589;DHT22;58504;48.770;9.148;2022-12-29T07:24:37;19.20;56.20
62589;DHT22;58504;48.770;9.148;2022-12-29T07:27:04;19.20;56.20
62589;DHT22;58504;48.770;9.148;2022-12-29T07:29:31;19.20;56.20
62589;DHT22;58504;48.770;9.148;2022-12-29T07:32:00;19.20;56.20
62589;DHT22;58504;48.770;9.148;2022-12-29T07:34:26;19.20;56.30
62589;DHT22;58504;48.770;9.148;2022-12-29T07:36:53;19.20;56.30
62589;DHT22;58504;48.770;9.148;2022-12-29T07:39:20;19.20;56.30
62589;DHT22;58504;48.770;9.148;2022-12-29T07:41:47;19.10;56.10
62589;DHT22;58504;48.770;9.148;2022-12-29T07:44:13;19.10;56.20
62589;DHT22;58504;48.770;9.148;2022-12-29T07:46:40;19.10;56.20
62589;DHT22;58504;48.770;9.148;2022-12-29T07:49:08;19.10;56.30
62589;DHT22;58504;48.770;9.148;2022-12-29T07:51:35;19.10;56.30
62589;DHT22;58504;48.770;9.148;2022-12-29T07:54:02;19.10;56.30
62589;DHT22;58504;48.770;9.148;2022-12-29T07:56:29;19.10;56.30
62589;DHT22;58504;48.770;9.148;2022-12-29T07:58:56;19.10;56.30
62589;DHT22;58504;48.770;9.148;2022-12-29T08:01:23;19.10;56.40
62589;DHT22;58504;48.770;9.148;2022-12-29T08:03:49;19.10;56.40
62589;DHT22;58504;48.770;9.148;2022-12-29T08:06:17;19.10;56.40
62589;DHT22;58504;48.770;9.148;2022-12-29T08:08:45;19.10;56.20
62589;DHT22;58504;48.770;9.148;2022-12-29T08:11:12;19.10;56.30
62589;DHT22;58504;48.770;9.148;2022-12-29T08:13:39;19.10;56.40
62589;DHT22;58504;48.770;9.148;2022-12-29T08:16:06;19.10;56.40
62589;DHT22;58504;48.770;9.148;2022-12-29T08:18:32;19.10;56.40
62589;DHT22;58504;48.770;9.148;2022-12-29T08:21:01;19.10;56.40
62589;DHT22;58504;48.770;9.148;2022-12-29T08:23:29;19.10;56.40
62589;DHT22;58504;48.770;9.148;2022-12-29T08:25:57;19.00;56.30
62589;DHT22;58504;48.770;9.148;2022-12-29T08:28:24;19.10;56.50
62589;DHT22;58504;48.770;9.148;2022-12-29T08:30:51;19.10;56.50
62589;DHT22;58504;48.770;9.148;2022-12-29T08:33:17;19.10;56.50
62589;DHT22;58504;48.770;9.148;2022-12-29T08:35:44;19.00;56.50
62589;DHT22;58504;48.770;9.148;2022-12-29T08:38:11;19.00;56.50
62589;DHT22;58504;48.770;9.148;2022-12-29T08:40:40;19.10;56.50
62589;DHT22;58504;48.770;9.148;2022-12-29T08:43:06;19.00;56.50
62589;DHT22;58504;48.770;9.148;2022-12-29T08:45:33;19.10;56.50
62589;DHT22;58504;48.770;9.148;2022-12-29T08:48:00;19.00;56.40
62589;DHT22;58504;48.770;9.148;2022-12-29T08:50:26;19.00;56.50
62589;DHT22;58504;48.770;9.148;2022-12-29T08:52:53;19.00;56.40
62589;DHT22;58504;48.770;9.148;2022-12-29T08:55:20;19.10;56.40
62589;DHT22;58504;48.770;9.148;2022-12-29T08:57:48;19.10;56.50
62589;DHT22;58504;48.770;9.148;2022-12-29T09:00:15;19.00;56.40
62589;DHT22;58504;48.770;9.148;2022-12-29T09:02:42;19.00;56.50
62589;DHT22;58504;48.770;9.148;2022-12-29T09:05:09;19.00;56.50
62589;DHT22;58504;48.770;9.148;2022-12-29T09:07:36;19.00;56.50
62589;DHT22;58504;48.770;9.148;2022-12-29T09:10:03;19.00;56.50
62589;DHT22;58504;48.770;9.148;2022-12-29T09:12:30;19.00;56.50
62589;DHT22;58504;48.770;9.148;2022-12-29T09:14:58;19.00;56.50
62589;DHT22;58504;48.770;9.148;2022-12-29T09:17:25;19.00;56.50
62589;DHT22;58504;48.770;9.148;2022-12-29T09:20:14;19.00;56.50
62589;DHT22;58504;48.770;9.148;2022-12-29T09:22:41;19.00;56.50
62589;DHT22;58504;48.770;9.148;2022-12-29T09:25:08;19.00;56.50
62589;DHT22;58504;48.770;9.148;2022-12-29T09:27:35;19.00;56.50
62589;DHT22;58504;48.770;9.148;2022-12-29T09:30:05;19.00;56.50
62589;DHT22;58504;48.770;9.148;2022-12-29T09:32:33;19.00;56.40
62589;DHT22;58504;48.770;9.148;2022-12-29T09:35:00;19.00;56.40
62589;DHT22;58504;48.770;9.148;2022-12-29T09:37:27;19.10;56.50
62589;DHT22;58504;48.770;9.148;2022-12-29T09:39:53;19.00;56.30
62589;DHT22;58504;48.770;9.148;2022-12-29T09:42:25;19.00;56.30
62589;DHT22;58504;48.770;9.148;2022-12-29T09:45:07;19.00;56.40
62589;DHT22;58504;48.770;9.148;2022-12-29T09:47:36;19.10;56.20
62589;DHT22;58504;48.770;9.148;2022-12-29T09:50:07;19.10;56.20
62589;DHT22;58504;48.770;9.148;2022-12-29T09:52:36;19.10;56.40
62589;DHT22;58504;48.770;9.148;2022-12-29T09:55:10;19.00;56.40
62589;DHT22;58504;48.770;9.148;2022-12-29T09:57:42;19.10;56.30
62589;DHT22;58504;48.770;9.148;2022-12-29T10:00:14;19.10;56.20
62589;DHT22;58504;48.770;9.148;2022-12-29T10:02:44;19.10;56.10
62589;DHT22;58504;48.770;9.148;2022-12-29T10:05:18;19.20;56.20
62589;DHT22;58504;48.770;9.148;2022-12-29T10:07:52;19.10;56.10
62589;DHT22;58504;48.770;9.148;2022-12-29T10:10:30;19.10;56.20
62589;DHT22;58504;48.770;9.148;2022-12-29T10:13:05;19.10;56.20
62589;DHT22;58504;48.770;9.148;2022-12-29T10:15:40;19.10;56.30
62589;DHT22;58504;48.770;9.148;2022-12-29T10:18:20;19.10;56.30
62589;DHT22;58504;48.770;9.148;2022-12-29T10:20:53;19.10;56.30
62589;DHT22;58504;48.770;9.148;2022-12-29T10:23:28;19.10;56.50
62589;DHT22;58504;48.770;9.148;2022-12-29T10:25:57;19.10;56.50
62589;DHT22;58504;48.770;9.148;2022-12-29T10:28:33;19.10;56.50
62589;DHT22;58504;48.770;9.148;2022-12-29T10:31:04;19.10;56.40
62589;DHT22;58504;48.770;9.148;2022-12-29T10:33:36;19.10;56.30
62589;DHT22;58504;48.770;9.148;2022-12-29T10:36:12;19.10;56.70
62589;DHT22;58504;48.770;9.148;2022-12-29T10:38:44;19.10;56.90
62589;DHT22;58504;48.770;9.148;2022-12-29T10:41:17;19.10;57.00
62589;DHT22;58504;48.770;9.148;2022-12-29T10:43:48;19.10;57.00
62589;DHT22;58504;48.770;9.148;2022-12-29T10:46:19;19.10;57.20
62589;DHT22;58504;48.770;9.148;2022-12-29T10:48:46;19.10;57.00
62589;DHT22;58504;48.770;9.148;2022-12-29T10:51:20;19.10;57.30
62589;DHT22;58504;48.770;9.148;2022-12-29T10:53:51;19.20;57.00
62589;DHT22;58504;48.770;9.148;2022-12-29T10:56:27;19.20;57.10
62589;DHT22;58504;48.770;9.148;2022-12-29T10:58:59;19.20;57.00
62589;DHT22;58504;48.770;9.148;2022-12-29T11:01:36;19.20;57.20
62589;DHT22;58504;48.770;9.148;2022-12-29T11:04:07;19.30;57.30
62589;DHT22;58504;48.770;9.148;2022-12-29T11:06:37;19.30;57.30
62589;DHT22;58504;48.770;9.148;2022-12-29T11:09:12;19.30;57.30
62589;DHT22;58504;48.770;9.148;2022-12-29T11:11:40;19.20;57.00
62589;DHT22;58504;48.770;9.148;2022-12-29T11:14:12;19.20;57.30
62589;DHT22;58504;48.770;9.148;2022-12-29T11:16:41;19.20;57.50
62589;DHT22;58504;48.770;9.148;2022-12-29T11:19:20;19.20;57.30
62589;DHT22;58504;48.770;9.148;2022-12-29T11:21:48;19.10;57.20
62589;DHT22;58504;48.770;9.148;2022-12-29T11:24:20;19.20;57.40
62589;DHT22;58504;48.770;9.148;2022-12-29T11:26:48;19.20;57.50
62589;DHT22;58504;48.770;9.148;2022-12-29T11:29:24;19.10;57.40
62589;DHT22;58504;48.770;9.148;2022-12-29T11:31:55;19.10;57.50
62589;DHT22;58504;48.770;9.148;2022-12-29T11:34:25;19.10;57.60
62589;DHT22;58504;48.770;9.148;2022-12-29T11:36:54;19.10;57.70
62589;DHT22;58504;48.770;9.148;2022-12-29T11:39:29;19.10;57.70
62589;DHT22;58504;48.770;9.148;2022-12-29T11:41:57;19.10;57.60
62589;DHT22;58504;48.770;9.148;2022-12-29T11:44:25;19.10;57.60
62589;DHT22;58504;48.770;9.148;2022-12-29T11:46:54;19.10;57.20
62589;DHT22;58504;48.770;9.148;2022-12-29T11:49:25;19.10;57.50
62589;DHT22;58504;48.770;9.148;2022-12-29T11:51:54;19.10;57.60
62589;DHT22;58504;48.770;9.148;2022-12-29T11:54:24;19.10;57.80
62589;DHT22;58504;48.770;9.148;2022-12-29T11:56:52;19.20;57.80
62589;DHT22;58504;48.770;9.148;2022-12-29T11:59:40;19.20;57.80
62589;DHT22;58504;48.770;9.148;2022-12-29T12:02:28;19.10;57.80
62589;DHT22;58504;48.770;9.148;2022-12-29T12:05:03;19.10;57.80
62589;DHT22;58504;48.770;9.148;2022-12-29T12:07:39;19.10;57.90
62589;DHT22;58504;48.770;9.148;2022-12-29T12:10:19;19.10;57.90
62589;DHT22;58504;48.770;9.148;2022-12-29T12:12:53;19.10;58.00
62589;DHT22;58504;48.770;9.148;2022-12-29T12:15:25;19.10;58.00
62589;DHT22;58504;48.770;9.148;2022-12-29T12:18:00;19.10;58.00
62589;DHT22;58504;48.770;9.148;2022-12-29T12:20:38;19.10;57.80
62589;DHT22;58504;48.770;9.148;2022-12-29T12:23:13;19.10;57.90
62589;DHT22;58504;48.770;9.148;2022-12-29T12:25:51;19.10;57.90
62589;DHT22;58504;48.770;9.148;2022-12-29T12:28:21;19.10;57.90
62589;DHT22;58504;48.770;9.148;2022-12-29T12:30:55;19.10;57.80
62589;DHT22;58504;48.770;9.148;2022-12-29T12:33:28;19.20;57.80
62589;DHT22;58504;48.770;9.148;2022-12-29T12:36:09;19.20;57.60
62589;DHT22;58504;48.770;9.148;2022-12-29T12:38:45;19.20;57.60
62589;DHT22;58504;48.770;9.148;2022-12-29T12:41:25;19.20;57.60
62589;DHT22;58504;48.770;9.148;2022-12-29T12:43:58;19.20;57.60
62589;DHT22;58504;48.770;9.148;2022-12-29T12:46:50;19.20;57.10
62589;DHT22;58504;48.770;9.148;2022-12-29T12:52:26;19.20;57.00
62589;DHT22;58504;48.770;9.148;2022-12-29T12:55:06;19.20;57.00
62589;DHT22;58504;48.770;9.148;2022-12-29T12:57:47;19.20;57.10
62589;DHT22;58504;48.770;9.148;2022-12-29T13:00:18;19.20;57.10
62589;DHT22;58504;48.770;9.148;2022-12-29T13:02:57;19.30;57.00
62589;DHT22;58504;48.770;9.148;2022-12-29T13:05:50;19.30;57.10
62589;DHT22;58504;48.770;9.148;2022-12-29T13:08:34;19.30;57.20
62589;DHT22;58504;48.770;9.148;2022-12-29T13:11:10;19.30;57.10
62589;DHT22;58504;48.770;9.148;2022-12-29T13:13:55;19.40;57.20
62589;DHT22;58504;48.770;9.148;2022-12-29T13:16:28;19.40;57.00
62589;DHT22;58504;48.770;9.148;2022-12-29T13:19:03;19.40;57.10
62589;DHT22;58504;48.770;9.148;2022-12-29T13:21:44;19.40;57.00
62589;DHT22;58504;48.770;9.148;2022-12-29T13:24:19;19.40;57.00
62589;DHT22;58504;48.770;9.148;2022-12-29T13:26:52;19.40;57.40
62589;DHT22;58504;48.770;9.148;2022-12-29T13:29:29;19.40;57.50
62589;DHT22;58504;48.770;9.148;2022-12-29T13:32:12;19.40;57.50
62589;DHT22;58504;48.770;9.148;2022-12-29T13:34:46;19.30;57.30
62589;DHT22;58504;48.770;9.148;2022-12-29T13:37:17;19.30;57.30
62589;DHT22;58504;48.770;9.148;2022-12-29T13:39:48;19.30;57.50
62589;DHT22;58504;48.770;9.148;2022-12-29T13:42:18;19.30;57.60
62589;DHT22;58504;48.770;9.148;2022-12-29T13:44:52;19.20;57.50
62589;DHT22;58504;48.770;9.148;2022-12-29T13:47:24;19.30;57.60
62589;DHT22;58504;48.770;9.148;2022-12-29T13:49:53;19.20;57.50
62589;DHT22;58504;48.770;9.148;2022-12-29T13:52:28;19.20;57.40
62589;DHT22;58504;48.770;9.148;2022-12-29T13:55:02;19.20;57.40
62589;DHT22;58504;48.770;9.148;2022-12-29T13:57:41;19.20;57.40
62589;DHT22;58504;48.770;9.148;2022-12-29T14:00:14;19.20;57.30
62589;DHT22;58504;48.770;9.148;2022-12-29T14:02:55;19.20;57.50
62589;DHT22;58504;48.770;9.148;2022-12-29T14:05:29;19.20;57.60
62589;DHT22;58504;48.770;9.148;2022-12-29T14:08:01;19.10;57.50
62589;DHT22;58504;48.770;9.148;2022-12-29T14:10:33;19.10;57.60
62589;DHT22;58504;48.770;9.148;2022-12-29T14:13:04;19.10;57.50
62589;DHT22;58504;48.770;9.148;2022-12-29T14:15:32;19.10;57.60
62589;DHT22;58504;48.770;9.148;2022-12-29T14:18:13;19.10;57.60
62589;DHT22;58504;48.770;9.148;2022-12-29T14:20:52;19.10;57.60
62589;DHT22;58504;48.770;9.148;2022-12-29T14:23:37;19.10;57.60
62589;DHT22;58504;48.770;9.148;2022-12-29T14:26:17;19.10;57.60
62589;DHT22;58504;48.770;9.148;2022-12-29T14:28:45;19.00;57.50
62589;DHT22;58504;48.770;9.148;2022-12-29T14:31:33;19.00;57.40
62589;DHT22;58504;48.770;9.148;2022-12-29T14:34:25;19.00;57.60
62589;DHT22;58504;48.770;9.148;2022-12-29T14:36:54;19.00;57.70
62589;DHT22;58504;48.770;9.148;2022-12-29T14:39:31;19.00;57.90
62589;DHT22;58504;48.770;9.148;2022-12-29T14:42:04;19.00;58.00
62589;DHT22;58504;48.770;9.148;2022-12-29T14:44:31;19.00;58.00
62589;DHT22;58504;48.770;9.148;2022-12-29T14:47:00;18.90;57.90
62589;DHT22;58504;48.770;9.148;2022-12-29T14:49:32;19.00;58.10
62589;DHT22;58504;48.770;9.148;2022-12-29T14:52:12;18.90;58.10
62589;DHT22;58504;48.770;9.148;2022-12-29T14:54:52;18.90;58.30
62589;DHT22;58504;48.770;9.148;2022-12-29T14:57:24;18.90;58.40
62589;DHT22;58504;48.770;9.148;2022-12-29T14:59:53;18.90;58.50
62589;DHT22;58504;48.770;9.148;2022-12-29T15:02:24;18.90;58.50
62589;DHT22;58504;48.770;9.148;2022-12-29T15:04:53;18.80;58.40
62589;DHT22;58504;48.770;9.148;2022-12-29T15:07:27;18.80;58.60
62589;DHT22;58504;48.770;9.148;2022-12-29T15:10:00;18.80;58.60
62589;DHT22;58504;48.770;9.148;2022-12-29T15:12:35;18.80;58.70
62589;DHT22;58504;48.770;9.148;2022-12-29T15:15:17;18.80;58.90
62589;DHT22;58504;48.770;9.148;2022-12-29T15:17:44;18.80;59.00
62589;DHT22;58504;48.770;9.148;2022-12-29T15:20:21;18.80;59.10
62589;DHT22;58504;48.770;9.148;2022-12-29T15:22:53;18.80;59.10
62589;DHT22;58504;48.770;9.148;2022-12-29T15:25:22;18.80;59.20
62589;DHT22;58504;48.770;9.148;2022-12-29T15:27:50;18.80;59.10
62589;DHT22;58504;48.770;9.148;2022-12-29T15:30:21;18.70;59.20
62589;DHT22;58504;48.770;9.148;2022-12-29T15:32:49;18.70;59.70
62589;DHT22;58504;48.770;9.148;2022-12-29T15:35:25;18.70;59.30
62589;DHT22;58504;48.770;9.148;2022-12-29T15:37:52;18.70;59.40
62589;DHT22;58504;48.770;9.148;2022-12-29T15:40:25;18.70;59.50
62589;DHT22;58504;48.770;9.148;2022-12-29T15:43:06;18.70;59.60
62589;DHT22;58504;48.770;9.148;2022-12-29T15:45:35;18.70;59.60
62589;DHT22;58504;48.770;9.148;2022-12-29T15:48:03;18.70;59.80
62589;DHT22;58504;48.770;9.148;2022-12-29T15:50:32;18.70;60.00
62589;DHT22;58504;48.770;9.148;2022-12-29T15:53:00;18.70;60.00
62589;DHT22;58504;48.770;9.148;2022-12-29T15:55:31;18.60;59.80
62589;DHT22;58504;48.770;9.148;2022-12-29T15:58:00;18.60;59.90
62589;DHT22;58504;48.770;9.148;2022-12-29T16:00:29;18.60;59.70
62589;DHT22;58504;48.770;9.148;2022-12-29T16:02:59;18.60;59.50